sensor_id;sensor_type;location;lat;lon;timestamp;temperature;humidity
46608;DHT22;32330;51.936;7.184;2024-02-26T00:01:31;4.90;99.90
46608;DHT22;32330;51.936;7.184;2024-02-26T00:04:00;4.90;99.90
46608;DHT22;32330;51.936;7.184;2024-02-26T00:06:28;4.90;99.90
46608;DHT22;32330;51.936;7.184;2024-02-26T00:08:55;4.90;99.90
46608;DHT22;32330;51.936;7.184;2024-02-26T00:11:22;4.90;99.90
46608;DHT22;32330;51.936;7.184;2024-02-26T00:13:50;4.90;99.90
46608;DHT22;32330;51.936;7.184;2024-02-26T00:16:17;4.90;99.90
46608;DHT22;32330;51.936;7.184;2024-02-26T00:18:44;4.90;99.90
46608;DHT22;32330;51.936;7.184;2024-02-26T00:21:12;4.90;99.90
46608;DHT22;32330;51.936;7.184;2024-02-26T00:23:39;4.90;99.90
46608;DHT22;32330;51.936;7.184;2024-02-26T00:26:06;4.90;99.90
46608;DHT22;32330;51.936;7.184;2024-02-26T00:28:33;4.80;99.90
46608;DHT22;32330;51.936;7.184;2024-02-26T00:31:00;4.80;99.90
46608;DHT22;32330;51.936;7.184;2024-02-26T00:33:28;4.80;99.90
46608;DHT22;32330;51.936;7.184;2024-02-26T00:35:55;4.80;99.90
46608;DHT22;32330;51.936;7.184;2024-02-26T00:38:24;4.80;99.90
46608;DHT22;32330;51.936;7.184;2024-02-26T00:40:51;4.90;99.90
46608;DHT22;32330;51.936;7.184;2024-02-26T00:43:18;4.90;99.90
46608;DHT22;32330;51.936;7.184;2024-02-26T00:45:45;5.00;99.90
46608;DHT22;32330;51.936;7.184;2024-02-26T00:48:12;5.00;99.90
46608;DHT22;32330;51.936;7.184;2024-02-26T00:50:39;5.10;99.90
46608;DHT22;32330;51.936;7.184;2024-02-26T00:53:07;5.10;99.90
46608;DHT22;32330;51.936;7.184;2024-02-26T00:55:35;5.10;99.90
46608;DHT22;32330;51.936;7.184;2024-02-26T00:58:03;5.20;99.70
46608;DHT22;32330;51.936;7.184;2024-02-26T01:00:30;5.20;99.90
46608;DHT22;32330;51.936;7.184;2024-02-26T01:02:57;5.20;98.60
46608;DHT22;32330;51.936;7.184;2024-02-26T01:05:25;5.30;98.50
46608;DHT22;32330;51.936;7.184;2024-02-26T01:07:52;5.30;98.80
46608;DHT22;32330;51.936;7.184;2024-02-26T01:10:19;5.30;98.50
46608;DHT22;32330;51.936;7.184;2024-02-26T01:12:47;5.30;98.20
46608;DHT22;32330;51.936;7.184;2024-02-26T01:15:14;5.30;99.10
46608;DHT22;32330;51.936;7.184;2024-02-26T01:17:41;5.30;99.50
46608;DHT22;32330;51.936;7.184;2024-02-26T01:20:09;5.40;97.30
46608;DHT22;32330;51.936;7.184;2024-02-26T01:22:36;5.40;97.50
46608;DHT22;32330;51.936;7.184;2024-02-26T01:25:04;5.50;96.40
46608;DHT22;32330;51.936;7.184;2024-02-26T01:27:32;5.50;95.20
46608;DHT22;32330;51.936;7.184;2024-02-26T01:30:00;5.40;95.60
46608;DHT22;32330;51.936;7.184;2024-02-26T01:32:28;5.50;94.10
46608;DHT22;32330;51.936;7.184;2024-02-26T01:34:55;5.50;94.50
46608;DHT22;32330;51.936;7.184;2024-02-26T01:37:23;5.50;95.40
46608;DHT22;32330;51.936;7.184;2024-02-26T01:39:50;5.50;95.40
46608;DHT22;32330;51.936;7.184;2024-02-26T01:42:17;5.50;95.20
46608;DHT22;32330;51.936;7.184;2024-02-26T01:44:44;5.50;95.20
46608;DHT22;32330;51.936;7.184;2024-02-26T01:47:13;5.60;95.20
46608;DHT22;32330;51.936;7.184;2024-02-26T01:49:40;5.60;94.00
46608;DHT22;32330;51.936;7.184;2024-02-26T01:52:09;5.60;94.90
46608;DHT22;32330;51.936;7.184;2024-02-26T01:54:37;5.50;95.10
46608;DHT22;32330;51.936;7.184;2024-02-26T01:57:05;5.60;95.00
46608;DHT22;32330;51.936;7.184;2024-02-26T01:59:33;5.50;94.50
46608;DHT22;32330;51.936;7.184;2024-02-26T02:02:03;5.60;95.00
46608;DHT22;32330;51.936;7.184;2024-02-26T02:04:34;5.60;95.10
46608;DHT22;32330;51.936;7.184;2024-02-26T02:07:01;5.60;94.30
46608;DHT22;32330;51.936;7.184;2024-02-26T02:09:28;5.60;94.40
46608;DHT22;32330;51.936;7.184;2024-02-26T02:11:56;5.60;94.00
46608;DHT22;32330;51.936;7.184;2024-02-26T02:14:24;5.60;93.70
46608;DHT22;32330;51.936;7.184;2024-02-26T02:16:51;5.60;91.90
46608;DHT22;32330;51.936;7.184;2024-02-26T02:19:18;5.70;92.80
46608;DHT22;32330;51.936;7.184;2024-02-26T02:21:47;5.70;92.20
46608;DHT22;32330;51.936;7.184;2024-02-26T02:24:14;5.70;92.10
46608;DHT22;32330;51.936;7.184;2024-02-26T02:26:41;5.70;91.80
46608;DHT22;32330;51.936;7.184;2024-02-26T02:29:08;5.70;91.20
46608;DHT22;32330;51.936;7.184;2024-02-26T02:31:35;5.70;91.20
46608;DHT22;32330;51.936;7.184;2024-02-26T02:34:03;5.70;92.20
46608;DHT22;32330;51.936;7.184;2024-02-26T02:36:30;5.70;90.50
46608;DHT22;32330;51.936;7.184;2024-02-26T02:38:58;5.80;89.60
46608;DHT22;32330;51.936;7.184;2024-02-26T02:41:25;5.80;89.00
46608;DHT22;32330;51.936;7.184;2024-02-26T02:43:55;5.80;86.80
46608;DHT22;32330;51.936;7.184;2024-02-26T02:46:22;5.80;88.00
46608;DHT22;32330;51.936;7.184;2024-02-26T02:48:49;5.80;86.70
46608;DHT22;32330;51.936;7.184;2024-02-26T02:51:16;5.90;84.60
46608;DHT22;32330;51.936;7.184;2024-02-26T02:53:43;5.90;83.80
46608;DHT22;32330;51.936;7.184;2024-02-26T02:56:12;5.90;86.10
46608;DHT22;32330;51.936;7.184;2024-02-26T02:58:39;5.90;87.90
46608;DHT22;32330;51.936;7.184;2024-02-26T03:01:06;5.90;87.90
46608;DHT22;32330;51.936;7.184;2024-02-26T03:03:33;5.90;86.50
46608;DHT22;32330;51.936;7.184;2024-02-26T03:06:01;5.90;87.00
46608;DHT22;32330;51.936;7.184;2024-02-26T03:08:28;5.90;86.50
46608;DHT22;32330;51.936;7.184;2024-02-26T03:10:57;5.80;88.40
46608;DHT22;32330;51.936;7.184;2024-02-26T03:13:26;5.90;86.60
46608;DHT22;32330;51.936;7.184;2024-02-26T03:15:53;5.80;90.10
46608;DHT22;32330;51.936;7.184;2024-02-26T03:18:20;5.80;88.40
46608;DHT22;32330;51.936;7.184;2024-02-26T03:20:48;5.80;90.30
46608;DHT22;32330;51.936;7.184;2024-02-26T03:23:16;5.70;90.70
46608;DHT22;32330;51.936;7.184;2024-02-26T03:25:44;5.80;90.30
46608;DHT22;32330;51.936;7.184;2024-02-26T03:28:13;5.80;90.20
46608;DHT22;32330;51.936;7.184;2024-02-26T03:30:42;5.80;90.70
46608;DHT22;32330;51.936;7.184;2024-02-26T03:33:09;5.80;90.90
46608;DHT22;32330;51.936;7.184;2024-02-26T03:35:36;5.80;90.70
46608;DHT22;32330;51.936;7.184;2024-02-26T03:38:04;5.80;91.80
46608;DHT22;32330;51.936;7.184;2024-02-26T03:40:31;5.80;92.30
46608;DHT22;32330;51.936;7.184;2024-02-26T03:42:58;5.80;92.10
46608;DHT22;32330;51.936;7.184;2024-02-26T03:45:25;5.80;92.00
46608;DHT22;32330;51.936;7.184;2024-02-26T03:47:54;5.70;91.70
46608;DHT22;32330;51.936;7.184;2024-02-26T03:50:21;5.80;93.10
46608;DHT22;32330;51.936;7.184;2024-02-26T03:52:48;5.70;91.80
46608;DHT22;32330;51.936;7.184;2024-02-26T03:55:15;5.80;93.60
46608;DHT22;32330;51.936;7.184;2024-02-26T03:57:46;5.80;92.40
46608;DHT22;32330;51.936;7.184;2024-02-26T04:00:14;5.70;92.70
46608;DHT22;32330;51.936;7.184;2024-02-26T04:02:41;5.70;92.30
46608;DHT22;32330;51.936;7.184;2024-02-26T04:05:11;5.80;92.70
46608;DHT22;32330;51.936;7.184;2024-02-26T04:07:38;5.80;93.20
46608;DHT22;32330;51.936;7.184;2024-02-26T04:10:09;5.80;92.60
46608;DHT22;32330;51.936;7.184;2024-02-26T04:12:38;5.70;93.20
46608;DHT22;32330;51.936;7.184;2024-02-26T04:15:06;5.70;93.00
46608;DHT22;32330;51.936;7.184;2024-02-26T04:17:33;5.80;92.50
46608;DHT22;32330;51.936;7.184;2024-02-26T04:20:00;5.80;92.00
46608;DHT22;32330;51.936;7.184;2024-02-26T04:22:29;5.80;93.80
46608;DHT22;32330;51.936;7.184;2024-02-26T04:24:56;5.70;94.90
46608;DHT22;32330;51.936;7.184;2024-02-26T04:27:25;5.70;94.80
46608;DHT22;32330;51.936;7.184;2024-02-26T04:29:52;5.70;94.80
46608;DHT22;32330;51.936;7.184;2024-02-26T04:32:19;5.70;95.80
46608;DHT22;32330;51.936;7.184;2024-02-26T04:34:46;5.70;95.90
46608;DHT22;32330;51.936;7.184;2024-02-26T04:37:13;5.70;95.90
46608;DHT22;32330;51.936;7.184;2024-02-26T04:39:41;5.60;97.50
46608;DHT22;32330;51.936;7.184;2024-02-26T04:42:08;5.60;97.90
46608;DHT22;32330;51.936;7.184;2024-02-26T04:44:35;5.60;98.80
46608;DHT22;32330;51.936;7.184;2024-02-26T04:47:03;5.60;99.90
46608;DHT22;32330;51.936;7.184;2024-02-26T04:49:30;5.60;99.90
46608;DHT22;32330;51.936;7.184;2024-02-26T04:51:57;5.50;99.90
46608;DHT22;32330;51.936;7.184;2024-02-26T04:54:24;5.50;99.90
46608;DHT22;32330;51.936;7.184;2024-02-26T04:56:52;5.50;99.90
46608;DHT22;32330;51.936;7.184;2024-02-26T04:59:19;5.50;99.90
46608;DHT22;32330;51.936;7.184;2024-02-26T05:01:47;5.40;99.90
46608;DHT22;32330;51.936;7.184;2024-02-26T05:04:14;5.40;99.90
46608;DHT22;32330;51.936;7.184;2024-02-26T05:06:41;5.40;99.90
46608;DHT22;32330;51.936;7.184;2024-02-26T05:09:08;5.40;99.90
46608;DHT22;32330;51.936;7.184;2024-02-26T05:11:35;5.30;99.90
46608;DHT22;32330;51.936;7.184;2024-02-26T05:14:04;5.30;99.90
46608;DHT22;32330;51.936;7.184;2024-02-26T05:16:31;5.30;99.90
46608;DHT22;32330;51.936;7.184;2024-02-26T05:18:58;5.30;99.90
46608;DHT22;32330;51.936;7.184;2024-02-26T05:21:25;5.30;99.90
46608;DHT22;32330;51.936;7.184;2024-02-26T05:23:52;5.30;99.90
46608;DHT22;32330;51.936;7.184;2024-02-26T05:26:20;5.20;99.90
46608;DHT22;32330;51.936;7.184;2024-02-26T05:28:47;5.20;99.90
46608;DHT22;32330;51.936;7.184;2024-02-26T05:31:17;5.20;99.90
46608;DHT22;32330;51.936;7.184;2024-02-26T05:33:44;5.20;99.90
46608;DHT22;32330;51.936;7.184;2024-02-26T05:36:18;5.20;99.90
46608;DHT22;32330;51.936;7.184;2024-02-26T05:38:45;5.20;99.90
46608;DHT22;32330;51.936;7.184;2024-02-26T05:41:12;5.20;99.90
46608;DHT22;32330;51.936;7.184;2024-02-26T05:43:40;5.20;99.90
46608;DHT22;32330;51.936;7.184;2024-02-26T05:46:08;5.20;99.90
46608;DHT22;32330;51.936;7.184;2024-02-26T05:48:36;5.20;99.90
46608;DHT22;32330;51.936;7.184;2024-02-26T05:51:04;5.20;99.90
46608;DHT22;32330;51.936;7.184;2024-02-26T05:53:32;5.10;99.90
46608;DHT22;32330;51.936;7.184;2024-02-26T05:55:59;5.10;99.90
46608;DHT22;32330;51.936;7.184;2024-02-26T05:58:27;5.10;99.90
46608;DHT22;32330;51.936;7.184;2024-02-26T06:00:54;5.10;99.90
46608;DHT22;32330;51.936;7.184;2024-02-26T06:03:21;5.10;99.90
46608;DHT22;32330;51.936;7.184;2024-02-26T06:05:49;5.00;99.90
46608;DHT22;32330;51.936;7.184;2024-02-26T06:08:16;5.10;99.90
46608;DHT22;32330;51.936;7.184;2024-02-26T06:10:43;5.10;99.90
46608;DHT22;32330;51.936;7.184;2024-02-26T06:13:11;5.10;99.90
46608;DHT22;32330;51.936;7.184;2024-02-26T06:15:38;5.10;99.90
46608;DHT22;32330;51.936;7.184;2024-02-26T06:18:05;5.00;99.90
46608;DHT22;32330;51.936;7.184;2024-02-26T06:20:32;5.10;99.90
46608;DHT22;32330;51.936;7.184;2024-02-26T06:23:01;5.10;99.90
46608;DHT22;32330;51.936;7.184;2024-02-26T06:25:28;5.10;99.90
46608;DHT22;32330;51.936;7.184;2024-02-26T06:27:55;5.00;99.90
46608;DHT22;32330;51.936;7.184;2024-02-26T06:30:22;5.10;99.90
46608;DHT22;32330;51.936;7.184;2024-02-26T06:32:49;5.10;99.90
46608;DHT22;32330;51.936;7.184;2024-02-26T06:35:16;5.10;99.90
46608;DHT22;32330;51.936;7.184;2024-02-26T06:37:43;5.20;99.90
46608;DHT22;32330;51.936;7.184;2024-02-26T06:40:11;5.10;99.90
46608;DHT22;32330;51.936;7.184;2024-02-26T06:42:38;5.10;99.90
46608;DHT22;32330;51.936;7.184;2024-02-26T06:45:06;5.20;99.90
46608;DHT22;32330;51.936;7.184;2024-02-26T06:47:33;5.20;99.90
46608;DHT22;32330;51.936;7.184;2024-02-26T06:50:01;5.20;99.90
46608;DHT22;32330;51.936;7.184;2024-02-26T06:52:28;5.20;99.90
46608;DHT22;32330;51.936;7.184;2024-02-26T06:54:56;5.20;99.90
46608;DHT22;32330;51.936;7.184;2024-02-26T06:57:24;5.20;99.90
46608;DHT22;32330;51.936;7.184;2024-02-26T06:59:51;5.20;99.90
46608;DHT22;32330;51.936;7.184;2024-02-26T07:02:18;5.20;99.90
46608;DHT22;32330;51.936;7.184;2024-02-26T07:04:45;5.20;99.90
46608;DHT22;32330;51.936;7.184;2024-02-26T07:07:12;5.30;99.90
46608;DHT22;32330;51.936;7.184;2024-02-26T07:09:42;5.30;99.90
46608;DHT22;32330;51.936;7.184;2024-02-26T07:12:09;5.30;99.90
46608;DHT22;32330;51.936;7.184;2024-02-26T07:14:37;5.30;99.90
46608;DHT22;32330;51.936;7.184;2024-02-26T07:17:04;5.30;99.90
46608;DHT22;32330;51.936;7.184;2024-02-26T07:19:31;5.40;99.90
46608;DHT22;32330;51.936;7.184;2024-02-26T07:21:58;5.40;99.90
46608;DHT22;32330;51.936;7.184;2024-02-26T07:24:27;5.40;99.90
46608;DHT22;32330;51.936;7.184;2024-02-26T07:26:54;5.40;99.90
46608;DHT22;32330;51.936;7.184;2024-02-26T07:29:21;5.40;99.90
46608;DHT22;32330;51.936;7.184;2024-02-26T07:31:49;5.40;99.90
46608;DHT22;32330;51.936;7.184;2024-02-26T07:34:16;5.40;99.90
46608;DHT22;32330;51.936;7.184;2024-02-26T07:36:43;5.50;99.90
46608;DHT22;32330;51.936;7.184;2024-02-26T07:39:10;5.50;99.90
46608;DHT22;32330;51.936;7.184;2024-02-26T07:41:37;5.50;99.90
46608;DHT22;32330;51.936;7.184;2024-02-26T07:44:05;5.50;99.90
46608;DHT22;32330;51.936;7.184;2024-02-26T07:46:32;5.50;99.90
46608;DHT22;32330;51.936;7.184;2024-02-26T07:49:00;5.50;99.90
46608;DHT22;32330;51.936;7.184;2024-02-26T07:51:27;5.50;99.90
46608;DHT22;32330;51.936;7.184;2024-02-26T07:53:54;5.50;99.90
46608;DHT22;32330;51.936;7.184;2024-02-26T07:56:21;5.60;99.90
46608;DHT22;32330;51.936;7.184;2024-02-26T07:58:48;5.60;99.90
46608;DHT22;32330;51.936;7.184;2024-02-26T08:01:15;5.60;99.90
46608;DHT22;32330;51.936;7.184;2024-02-26T08:03:42;5.60;99.90
46608;DHT22;32330;51.936;7.184;2024-02-26T08:06:11;5.70;99.90
46608;DHT22;32330;51.936;7.184;2024-02-26T08:08:38;5.70;99.90
46608;DHT22;32330;51.936;7.184;2024-02-26T08:11:05;5.70;99.90
46608;DHT22;32330;51.936;7.184;2024-02-26T08:13:33;5.70;99.90
46608;DHT22;32330;51.936;7.184;2024-02-26T08:16:00;5.70;99.90
46608;DHT22;32330;51.936;7.184;2024-02-26T08:18:27;5.70;99.90
46608;DHT22;32330;51.936;7.184;2024-02-26T08:20:54;5.80;99.90
46608;DHT22;32330;51.936;7.184;2024-02-26T08:23:22;5.80;99.90
46608;DHT22;32330;51.936;7.184;2024-02-26T08:25:50;5.80;99.90
46608;DHT22;32330;51.936;7.184;2024-02-26T08:28:17;5.80;99.90
46608;DHT22;32330;51.936;7.184;2024-02-26T08:30:45;5.80;99.90
46608;DHT22;32330;51.936;7.184;2024-02-26T08:33:12;5.80;99.90
46608;DHT22;32330;51.936;7.184;2024-02-26T08:35:39;5.80;99.90
46608;DHT22;32330;51.936;7.184;2024-02-26T08:38:06;5.80;99.90
46608;DHT22;32330;51.936;7.184;2024-02-26T08:40:35;5.90;99.90
46608;DHT22;32330;51.936;7.184;2024-02-26T08:43:02;5.90;99.90
46608;DHT22;32330;51.936;7.184;2024-02-26T08:45:29;6.00;99.90
46608;DHT22;32330;51.936;7.184;2024-02-26T08:47:56;6.00;99.90
46608;DHT22;32330;51.936;7.184;2024-02-26T08:50:24;6.00;99.90
46608;DHT22;32330;51.936;7.184;2024-02-26T08:52:51;6.10;99.90
46608;DHT22;32330;51.936;7.184;2024-02-26T08:55:19;6.10;99.90
46608;DHT22;32330;51.936;7.184;2024-02-26T08:57:47;6.10;99.90
46608;DHT22;32330;51.936;7.184;2024-02-26T09:00:15;6.20;99.90
46608;DHT22;32330;51.936;7.184;2024-02-26T09:02:43;6.20;99.90
46608;DHT22;32330;51.936;7.184;2024-02-26T09:05:10;6.20;99.90
46608;DHT22;32330;51.936;7.184;2024-02-26T09:07:37;6.20;99.90
46608;DHT22;32330;51.936;7.184;2024-02-26T09:10:05;6.20;99.90
46608;DHT22;32330;51.936;7.184;2024-02-26T09:12:34;6.20;99.90
46608;DHT22;32330;51.936;7.184;2024-02-26T09:15:04;6.20;99.90
46608;DHT22;32330;51.936;7.184;2024-02-26T09:17:31;6.10;99.90
46608;DHT22;32330;51.936;7.184;2024-02-26T09:19:58;6.10;99.90
46608;DHT22;32330;51.936;7.184;2024-02-26T09:22:25;6.20;99.90
46608;DHT22;32330;51.936;7.184;2024-02-26T09:24:52;6.20;99.90
46608;DHT22;32330;51.936;7.184;2024-02-26T09:27:19;6.20;99.90
46608;DHT22;32330;51.936;7.184;2024-02-26T09:29:47;6.20;99.50
46608;DHT22;32330;51.936;7.184;2024-02-26T09:32:15;6.20;99.20
46608;DHT22;32330;51.936;7.184;2024-02-26T09:34:43;6.30;99.50
46608;DHT22;32330;51.936;7.184;2024-02-26T09:37:10;6.30;98.80
46608;DHT22;32330;51.936;7.184;2024-02-26T09:39:38;6.30;98.90
46608;DHT22;32330;51.936;7.184;2024-02-26T09:42:05;6.30;99.00
46608;DHT22;32330;51.936;7.184;2024-02-26T09:44:36;6.20;99.20
46608;DHT22;32330;51.936;7.184;2024-02-26T09:47:08;6.30;97.40
46608;DHT22;32330;51.936;7.184;2024-02-26T09:49:38;6.30;98.10
46608;DHT22;32330;51.936;7.184;2024-02-26T09:52:06;6.40;99.30
46608;DHT22;32330;51.936;7.184;2024-02-26T09:54:35;6.40;98.50
46608;DHT22;32330;51.936;7.184;2024-02-26T09:57:03;6.40;98.70
46608;DHT22;32330;51.936;7.184;2024-02-26T09:59:37;6.40;99.20
46608;DHT22;32330;51.936;7.184;2024-02-26T10:02:07;6.40;98.50
46608;DHT22;32330;51.936;7.184;2024-02-26T10:04:38;6.40;98.90
46608;DHT22;32330;51.936;7.184;2024-02-26T10:07:10;6.40;99.60
46608;DHT22;32330;51.936;7.184;2024-02-26T10:09:37;6.40;99.30
46608;DHT22;32330;51.936;7.184;2024-02-26T10:12:05;6.40;99.70
46608;DHT22;32330;51.936;7.184;2024-02-26T10:14:33;6.40;99.90
46608;DHT22;32330;51.936;7.184;2024-02-26T10:17:02;6.50;99.90
46608;DHT22;32330;51.936;7.184;2024-02-26T10:19:31;6.50;99.90
46608;DHT22;32330;51.936;7.184;2024-02-26T10:22:01;6.50;99.90
46608;DHT22;32330;51.936;7.184;2024-02-26T10:24:29;6.40;99.90
46608;DHT22;32330;51.936;7.184;2024-02-26T10:26:57;6.50;99.90
46608;DHT22;32330;51.936;7.184;2024-02-26T10:29:24;6.50;99.90
46608;DHT22;32330;51.936;7.184;2024-02-26T10:31:52;6.50;99.90
46608;DHT22;32330;51.936;7.184;2024-02-26T10:34:19;6.50;99.90
46608;DHT22;32330;51.936;7.184;2024-02-26T10:36:47;6.50;99.90
46608;DHT22;32330;51.936;7.184;2024-02-26T10:39:15;6.50;99.90
46608;DHT22;32330;51.936;7.184;2024-02-26T10:41:43;6.40;99.90
46608;DHT22;32330;51.936;7.184;2024-02-26T10:44:12;6.40;99.90
46608;DHT22;32330;51.936;7.184;2024-02-26T10:46:40;6.40;99.90
46608;DHT22;32330;51.936;7.184;2024-02-26T10:49:13;6.50;99.90
46608;DHT22;32330;51.936;7.184;2024-02-26T10:51:44;6.50;99.90
46608;DHT22;32330;51.936;7.184;2024-02-26T10:54:15;6.50;99.90
46608;DHT22;32330;51.936;7.184;2024-02-26T10:56:43;6.50;99.90
46608;DHT22;32330;51.936;7.184;2024-02-26T10:59:12;6.40;99.90
46608;DHT22;32330;51.936;7.184;2024-02-26T11:01:39;6.40;99.90
46608;DHT22;32330;51.936;7.184;2024-02-26T11:04:10;6.50;99.90
46608;DHT22;32330;51.936;7.184;2024-02-26T11:06:38;6.50;99.90
46608;DHT22;32330;51.936;7.184;2024-02-26T11:09:06;6.50;99.90
46608;DHT22;32330;51.936;7.184;2024-02-26T11:11:40;6.50;99.90
46608;DHT22;32330;51.936;7.184;2024-02-26T11:14:08;6.50;99.90
46608;DHT22;32330;51.936;7.184;2024-02-26T11:16:38;6.50;99.90
46608;DHT22;32330;51.936;7.184;2024-02-26T11:19:07;6.60;99.90
46608;DHT22;32330;51.936;7.184;2024-02-26T11:21:35;6.60;99.90
46608;DHT22;32330;51.936;7.184;2024-02-26T11:24:08;6.50;99.90
46608;DHT22;32330;51.936;7.184;2024-02-26T11:26:41;6.50;99.90
46608;DHT22;32330;51.936;7.184;2024-02-26T11:29:12;6.50;99.90
46608;DHT22;32330;51.936;7.184;2024-02-26T11:31:40;6.50;99.90
46608;DHT22;32330;51.936;7.184;2024-02-26T11:34:09;6.60;99.90
46608;DHT22;32330;51.936;7.184;2024-02-26T11:36:36;6.50;99.90
46608;DHT22;32330;51.936;7.184;2024-02-26T11:39:05;6.60;99.90
46608;DHT22;32330;51.936;7.184;2024-02-26T11:41:32;6.50;99.90
46608;DHT22;32330;51.936;7.184;2024-02-26T11:44:01;6.50;99.90
46608;DHT22;32330;51.936;7.184;2024-02-26T11:46:31;6.50;99.90
46608;DHT22;32330;51.936;7.184;2024-02-26T11:48:59;6.50;99.90
46608;DHT22;32330;51.936;7.184;2024-02-26T11:51:27;6.50;99.90
46608;DHT22;32330;51.936;7.184;2024-02-26T11:53:55;6.60;99.90
46608;DHT22;32330;51.936;7.184;2024-02-26T11:56:25;6.50;99.90
46608;DHT22;32330;51.936;7.184;2024-02-26T11:58:58;6.50;99.90
46608;DHT22;32330;51.936;7.184;2024-02-26T12:01:43;6.60;99.90
46608;DHT22;32330;51.936;7.184;2024-02-26T12:04:13;6.60;99.90
46608;DHT22;32330;51.936;7.184;2024-02-26T12:06:47;6.50;99.90
46608;DHT22;32330;51.936;7.184;2024-02-26T12:09:30;6.50;99.90
46608;DHT22;32330;51.936;7.184;2024-02-26T12:11:58;6.50;99.90
46608;DHT22;32330;51.936;7.184;2024-02-26T12:14:26;6.50;99.90
46608;DHT22;32330;51.936;7.184;2024-02-26T12:16:55;6.40;99.90
46608;DHT22;32330;51.936;7.184;2024-02-26T12:19:24;6.50;99.90
46608;DHT22;32330;51.936;7.184;2024-02-26T12:21:52;6.50;99.90
46608;DHT22;32330;51.936;7.184;2024-02-26T12:24:20;6.50;99.90
46608;DHT22;32330;51.936;7.184;2024-02-26T12:26:47;6.50;99.90
46608;DHT22;32330;51.936;7.184;2024-02-26T12:29:14;6.40;99.90
46608;DHT22;32330;51.936;7.184;2024-02-26T12:31:41;6.40;99.90
46608;DHT22;32330;51.936;7.184;2024-02-26T12:34:10;6.40;99.90
46608;DHT22;32330;51.936;7.184;2024-02-26T12:36:37;6.40;99.90
46608;DHT22;32330;51.936;7.184;2024-02-26T12:39:06;6.40;99.90
46608;DHT22;32330;51.936;7.184;2024-02-26T12:41:35;6.40;99.90
46608;DHT22;32330;51.936;7.184;2024-02-26T12:44:02;6.40;99.90
46608;DHT22;32330;51.936;7.184;2024-02-26T12:46:30;6.40;99.90
46608;DHT22;32330;51.936;7.184;2024-02-26T12:48:58;6.40;99.90
46608;DHT22;32330;51.936;7.184;2024-02-26T12:51:27;6.40;99.90
46608;DHT22;32330;51.936;7.184;2024-02-26T12:53:55;6.40;99.90
46608;DHT22;32330;51.936;7.184;2024-02-26T12:56:23;6.40;99.90
46608;DHT22;32330;51.936;7.184;2024-02-26T12:58:51;6.40;99.90
46608;DHT22;32330;51.936;7.184;2024-02-26T13:01:22;6.40;99.90
46608;DHT22;32330;51.936;7.184;2024-02-26T13:03:51;6.40;99.90
46608;DHT22;32330;51.936;7.184;2024-02-26T13:06:19;6.30;99.90
46608;DHT22;32330;51.936;7.184;2024-02-26T13:08:49;6.40;99.90
46608;DHT22;32330;51.936;7.184;2024-02-26T13:11:16;6.40;99.90
46608;DHT22;32330;51.936;7.184;2024-02-26T13:13:47;6.40;99.90
46608;DHT22;32330;51.936;7.184;2024-02-26T13:16:15;6.30;99.90
46608;DHT22;32330;51.936;7.184;2024-02-26T13:18:42;6.40;99.90
46608;DHT22;32330;51.936;7.184;2024-02-26T13:21:11;6.40;99.90
46608;DHT22;32330;51.936;7.184;2024-02-26T13:23:39;6.40;99.90
46608;DHT22;32330;51.936;7.184;2024-02-26T13:26:09;6.40;99.90
46608;DHT22;32330;51.936;7.184;2024-02-26T13:28:38;6.40;99.90
46608;DHT22;32330;51.936;7.184;2024-02-26T13:31:05;6.40;99.90
46608;DHT22;32330;51.936;7.184;2024-02-26T13:33:34;6.40;99.90
46608;DHT22;32330;51.936;7.184;2024-02-26T13:36:01;6.50;99.90
46608;DHT22;32330;51.936;7.184;2024-02-26T13:38:28;6.50;99.90
46608;DHT22;32330;51.936;7.184;2024-02-26T13:40:56;6.50;99.90
46608;DHT22;32330;51.936;7.184;2024-02-26T13:43:24;6.50;99.90
46608;DHT22;32330;51.936;7.184;2024-02-26T13:45:51;6.50;99.90
46608;DHT22;32330;51.936;7.184;2024-02-26T13:48:18;6.40;99.90
46608;DHT22;32330;51.936;7.184;2024-02-26T13:50:45;6.40;99.90
46608;DHT22;32330;51.936;7.184;2024-02-26T13:53:13;6.50;99.90
46608;DHT22;32330;51.936;7.184;2024-02-26T13:55:41;6.50;99.90
46608;DHT22;32330;51.936;7.184;2024-02-26T13:58:11;6.50;99.90
46608;DHT22;32330;51.936;7.184;2024-02-26T14:00:40;6.40;99.90
46608;DHT22;32330;51.936;7.184;2024-02-26T14:03:07;6.50;99.90
46608;DHT22;32330;51.936;7.184;2024-02-26T14:05:34;6.50;99.90
46608;DHT22;32330;51.936;7.184;2024-02-26T14:08:02;6.50;99.90
46608;DHT22;32330;51.936;7.184;2024-02-26T14:10:29;6.40;99.90
46608;DHT22;32330;51.936;7.184;2024-02-26T14:12:57;6.50;99.90
46608;DHT22;32330;51.936;7.184;2024-02-26T14:15:25;6.60;99.90
46608;DHT22;32330;51.936;7.184;2024-02-26T14:17:53;6.60;99.90
46608;DHT22;32330;51.936;7.184;2024-02-26T14:20:22;6.60;99.90
46608;DHT22;32330;51.936;7.184;2024-02-26T14:22:50;6.60;99.90
46608;DHT22;32330;51.936;7.184;2024-02-26T14:25:17;6.60;99.90
46608;DHT22;32330;51.936;7.184;2024-02-26T14:27:45;6.60;99.90
46608;DHT22;32330;51.936;7.184;2024-02-26T14:30:13;6.50;99.90
46608;DHT22;32330;51.936;7.184;2024-02-26T14:32:40;6.60;99.90
46608;DHT22;32330;51.936;7.184;2024-02-26T14:35:09;6.60;99.90
46608;DHT22;32330;51.936;7.184;2024-02-26T14:37:37;6.50;99.90
46608;DHT22;32330;51.936;7.184;2024-02-26T14:40:05;6.60;99.90
46608;DHT22;32330;51.936;7.184;2024-02-26T14:42:34;6.70;99.90
46608;DHT22;32330;51.936;7.184;2024-02-26T14:45:01;6.70;99.90
46608;DHT22;32330;51.936;7.184;2024-02-26T14:47:28;6.70;99.90
46608;DHT22;32330;51.936;7.184;2024-02-26T14:49:55;6.70;99.90
46608;DHT22;32330;51.936;7.184;2024-02-26T14:52:23;6.70;99.90
46608;DHT22;32330;51.936;7.184;2024-02-26T14:54:50;6.70;99.90
46608;DHT22;32330;51.936;7.184;2024-02-26T14:57:18;6.70;99.90
46608;DHT22;32330;51.936;7.184;2024-02-26T14:59:45;6.70;99.90
46608;DHT22;32330;51.936;7.184;2024-02-26T15:02:13;6.70;99.90
46608;DHT22;32330;51.936;7.184;2024-02-26T15:04:40;6.70;99.90
46608;DHT22;32330;51.936;7.184;2024-02-26T15:07:07;6.80;99.90
46608;DHT22;32330;51.936;7.184;2024-02-26T15:09:37;6.70;99.90
46608;DHT22;32330;51.936;7.184;2024-02-26T15:12:06;6.80;99.90
46608;DHT22;32330;51.936;7.184;2024-02-26T15:14:33;6.70;99.90
46608;DHT22;32330;51.936;7.184;2024-02-26T15:17:01;6.70;99.90
46608;DHT22;32330;51.936;7.184;2024-02-26T15:19:28;6.70;99.90
46608;DHT22;32330;51.936;7.184;2024-02-26T15:21:55;6.70;99.90
46608;DHT22;32330;51.936;7.184;2024-02-26T15:24:22;6.70;99.90
46608;DHT22;32330;51.936;7.184;2024-02-26T15:26:51;6.60;99.90
46608;DHT22;32330;51.936;7.184;2024-02-26T15:29:18;6.60;99.90
46608;DHT22;32330;51.936;7.184;2024-02-26T15:31:45;6.70;99.90
46608;DHT22;32330;51.936;7.184;2024-02-26T15:34:12;6.60;99.90
46608;DHT22;32330;51.936;7.184;2024-02-26T15:36:40;6.60;99.90
46608;DHT22;32330;51.936;7.184;2024-02-26T15:39:07;6.60;99.90
46608;DHT22;32330;51.936;7.184;2024-02-26T15:41:34;6.60;99.90
46608;DHT22;32330;51.936;7.184;2024-02-26T15:44:03;6.60;99.90
46608;DHT22;32330;51.936;7.184;2024-02-26T15:46:30;6.60;99.90
46608;DHT22;32330;51.936;7.184;2024-02-26T15:48:57;6.60;99.90